createdAt,value
2024-03-11T00:02:01.688Z,996.6717
2024-03-11T00:07:04.837Z,996.6599
2024-03-11T00:12:01.851Z,996.7392
2024-03-11T00:17:03.533Z,996.7263
2024-03-11T00:22:02.106Z,996.7701
2024-03-11T00:27:03.178Z,996.7444
2024-03-11T00:32:03.166Z,996.8056
2024-03-11T00:37:01.743Z,996.8503
2024-03-11T00:42:01.656Z,996.8965
2024-03-11T00:47:01.759Z,996.873
2024-03-11T00:52:01.770Z,996.9598
2024-03-11T00:57:02.521Z,996.954
2024-03-11T01:02:01.783Z,996.8934
2024-03-11T01:07:12.376Z,996.9461
2024-03-11T01:12:01.804Z,997.0184
2024-03-11T01:17:02.986Z,997.0262
2024-03-11T01:22:02.264Z,997.0831
2024-03-11T01:27:08.331Z,997.0452
2024-03-11T01:32:01.851Z,997.0396
2024-03-11T01:37:01.948Z,997.0693
2024-03-11T01:42:01.732Z,997.1141
2024-03-11T01:47:02.566Z,997.0583
2024-03-11T01:52:03.711Z,997.0552
2024-03-11T01:57:02.603Z,997.0432
2024-03-11T02:02:04.131Z,997.0112
2024-03-11T02:07:01.748Z,996.9495
2024-03-11T02:12:02.062Z,996.9087
2024-03-11T02:17:03.031Z,996.8869
2024-03-11T02:22:04.543Z,996.7846
2024-03-11T02:27:01.733Z,996.8089
2024-03-11T02:32:02.068Z,996.8374
2024-03-11T02:37:02.317Z,996.8788
2024-03-11T02:42:01.761Z,996.9099
2024-03-11T02:47:02.298Z,996.9942
2024-03-11T02:52:01.822Z,996.9872
2024-03-11T02:57:01.992Z,996.9623
2024-03-11T03:02:01.833Z,996.9603
2024-03-11T03:07:02.109Z,996.9412
2024-03-11T03:12:03.902Z,996.9177
2024-03-11T03:17:02.032Z,996.9274
2024-03-11T03:22:01.819Z,996.8844
2024-03-11T03:27:01.814Z,996.9413
2024-03-11T03:32:02.748Z,996.9327
2024-03-11T03:37:01.782Z,996.8939
2024-03-11T03:42:01.960Z,996.8994
2024-03-11T03:47:01.831Z,996.8818
2024-03-11T03:52:01.881Z,996.978
2024-03-11T03:57:01.880Z,996.9833
2024-03-11T04:02:01.861Z,997.0023
2024-03-11T04:07:01.876Z,997.0023
2024-03-11T04:12:04.680Z,997.0341
2024-03-11T04:17:01.816Z,997.1027
2024-03-11T04:22:04.286Z,997.0856
2024-03-11T04:27:01.910Z,997.0616
2024-03-11T04:32:01.877Z,997.0698
2024-03-11T04:37:03.059Z,997.0972
2024-03-11T04:42:01.916Z,997.1683
2024-03-11T04:47:02.030Z,997.2459
2024-03-11T04:52:04.755Z,997.2555
2024-03-11T04:57:02.906Z,997.2268
2024-03-11T05:02:02.581Z,997.1883
2024-03-11T05:07:01.953Z,997.2085
2024-03-11T05:12:02.324Z,997.2395
2024-03-11T05:17:02.534Z,997.2311
2024-03-11T05:22:02.396Z,997.2169
2024-03-11T05:27:01.908Z,997.2539
2024-03-11T05:32:01.916Z,997.1844
2024-03-11T05:37:01.939Z,997.0895
2024-03-11T05:42:06.425Z,997.1253
2024-03-11T05:47:01.897Z,997.1805
2024-03-11T05:52:03.646Z,997.2601
2024-03-11T05:57:02.552Z,997.2941
2024-03-11T06:02:02.450Z,997.3447
2024-03-11T06:07:01.938Z,997.3318
2024-03-11T06:12:01.971Z,997.3766
2024-03-11T06:17:06.320Z,997.5148
2024-03-11T06:22:03.804Z,997.5258
2024-03-11T06:27:02.132Z,997.616
2024-03-11T06:32:05.212Z,997.6467
2024-03-11T06:37:02.007Z,997.6422
2024-03-11T06:42:02.536Z,997.6883
2024-03-11T06:47:02.103Z,997.7778
2024-03-11T06:52:02.186Z,997.8817
2024-03-11T06:57:02.072Z,997.8538
2024-03-11T07:02:02.009Z,997.9026
2024-03-11T07:07:02.167Z,997.9238
2024-03-11T07:12:02.505Z,997.9456
2024-03-11T07:17:03.713Z,997.9617
2024-03-11T07:22:01.962Z,997.9581
2024-03-11T07:27:01.962Z,998.0176
2024-03-11T07:32:02.298Z,998.0814
2024-03-11T07:37:02.955Z,998.0577
2024-03-11T07:42:02.003Z,997.97
2024-03-11T07:47:01.987Z,998.1024
2024-03-11T07:52:02.153Z,998.1498
2024-03-11T07:57:02.001Z,998.2131
2024-03-11T08:02:02.404Z,998.3347
2024-03-11T08:07:03.934Z,998.3056
2024-03-11T08:12:02.359Z,998.2861
2024-03-11T08:17:02.382Z,998.3865
2024-03-11T08:22:02.037Z,998.4356
2024-03-11T08:27:02.588Z,998.3602
2024-03-11T08:32:02.176Z,998.4772
2024-03-11T08:37:04.999Z,998.5075
2024-03-11T08:42:02.029Z,998.5906
2024-03-11T08:47:04.702Z,998.5767
2024-03-11T08:52:02.143Z,998.5984
2024-03-11T08:57:02.056Z,998.5524
2024-03-11T09:02:02.740Z,998.5756
2024-03-11T09:07:02.378Z,998.5287
2024-03-11T09:12:02.371Z,998.6237
2024-03-11T09:17:03.196Z,998.7261
2024-03-11T09:22:03.682Z,998.8303
2024-03-11T09:27:03.799Z,998.9286
2024-03-11T09:32:03.621Z,998.9614
2024-03-11T09:37:02.173Z,999.0617
2024-03-11T09:42:06.154Z,999.182
2024-03-11T09:47:02.322Z,999.1998
2024-03-11T09:52:03.580Z,999.1633
2024-03-11T09:57:07.392Z,999.1908
2024-03-11T10:02:02.104Z,999.2515
2024-03-11T10:07:05.985Z,999.1509
2024-03-11T10:12:09.873Z,999.1322
2024-03-11T10:17:12.139Z,999.1255
2024-03-11T10:22:10.253Z,999.1742
2024-03-11T10:27:07.803Z,999.1547
2024-03-11T10:32:04.260Z,999.2025
2024-03-11T10:37:05.299Z,999.2958
2024-03-11T10:42:02.322Z,999.3658
2024-03-11T10:47:15.888Z,999.3953
2024-03-11T10:52:08.305Z,999.4186
2024-03-11T10:57:03.270Z,999.4702
2024-03-11T11:02:02.680Z,999.5021
2024-03-11T11:07:03.715Z,999.5226
2024-03-11T11:12:05.236Z,999.5427
2024-03-11T11:17:03.235Z,999.5809
2024-03-11T11:22:02.512Z,999.6225
2024-03-11T11:27:02.466Z,999.6678
2024-03-11T11:32:12.923Z,999.6514
2024-03-11T11:37:08.077Z,999.6788
2024-03-11T11:42:03.652Z,999.7325
2024-03-11T11:47:09.507Z,999.8262
2024-03-11T11:52:02.189Z,999.82
2024-03-11T11:57:12.618Z,999.8295
2024-03-11T12:02:02.438Z,999.8572
2024-03-11T12:07:03.993Z,999.9171
2024-03-11T12:12:04.529Z,1000.031
2024-03-11T12:17:12.670Z,1000.086
2024-03-11T12:22:03.316Z,1000.155
2024-03-11T12:27:02.519Z,1000.206
2024-03-11T12:32:05.367Z,1000.177
2024-03-11T12:37:02.666Z,1000.183
2024-03-11T12:42:02.279Z,1000.273
2024-03-11T12:47:02.460Z,1000.323
2024-03-11T12:52:09.678Z,1000.372
2024-03-11T12:57:12.585Z,1000.454
2024-03-11T13:02:15.222Z,1000.552
2024-03-11T13:07:06.984Z,1000.553
2024-03-11T13:12:04.981Z,1000.576
2024-03-11T13:17:02.240Z,1000.656
2024-03-11T13:22:12.316Z,1000.738
2024-03-11T13:27:02.308Z,1000.774
2024-03-11T13:32:03.249Z,1000.776
2024-03-11T13:37:02.265Z,1000.765
2024-03-11T13:42:04.353Z,1000.809
2024-03-11T13:47:02.564Z,1000.814
2024-03-11T13:52:05.833Z,1000.856
2024-03-11T13:57:02.262Z,1000.933
2024-03-11T14:02:03.613Z,1000.969
2024-03-11T14:07:02.906Z,1001.013
2024-03-11T14:12:02.328Z,1001.055
2024-03-11T14:17:02.319Z,1001.059
2024-03-11T14:22:02.777Z,1001.17
2024-03-11T14:27:02.661Z,1001.288
2024-03-11T14:32:02.297Z,1001.29
2024-03-11T14:37:02.475Z,1001.296
2024-03-11T14:42:02.346Z,1001.291
2024-03-11T14:47:04.068Z,1001.385
2024-03-11T14:52:04.355Z,1001.428
2024-03-11T14:57:02.438Z,1001.478
2024-03-11T15:02:03.100Z,1001.554
2024-03-11T15:07:02.633Z,1001.61
2024-03-11T15:12:02.408Z,1001.635
2024-03-11T15:17:02.320Z,1001.706
2024-03-11T15:22:02.493Z,1001.814
2024-03-11T15:27:02.408Z,1001.858
2024-03-11T15:32:02.360Z,1001.898
2024-03-11T15:37:02.455Z,1001.902
2024-03-11T15:42:04.457Z,1001.949
2024-03-11T15:47:04.297Z,1002.045
2024-03-11T15:52:07.395Z,1002.062
2024-03-11T15:57:02.327Z,1002.097
2024-03-11T16:02:06.504Z,1002.14
2024-03-11T16:07:04.719Z,1002.216
2024-03-11T16:12:02.540Z,1002.278
2024-03-11T16:17:02.389Z,1002.277
2024-03-11T16:22:02.484Z,1002.379
2024-03-11T16:27:02.432Z,1002.433
2024-03-11T16:32:02.545Z,1002.47
2024-03-11T16:37:05.915Z,1002.54
2024-03-11T16:42:02.814Z,1002.575
2024-03-11T16:47:04.123Z,1002.665
2024-03-11T16:52:02.450Z,1002.753
2024-03-11T16:57:03.421Z,1002.791
2024-03-11T17:02:02.481Z,1002.859
2024-03-11T17:07:02.630Z,1002.933
2024-03-11T17:12:02.720Z,1002.958
2024-03-11T17:17:03.893Z,1002.992
2024-03-11T17:22:03.776Z,1003.092
2024-03-11T17:27:02.420Z,1003.176
2024-03-11T17:32:04.012Z,1003.297
2024-03-11T17:37:02.579Z,1003.41
2024-03-11T17:42:04.935Z,1003.508
2024-03-11T17:47:02.489Z,1003.562
2024-03-11T17:52:04.947Z,1003.613
2024-03-11T17:57:02.441Z,1003.654
2024-03-11T18:02:02.452Z,1003.69
2024-03-11T18:07:02.468Z,1003.704
2024-03-11T18:12:04.520Z,1003.835
2024-03-11T18:17:02.542Z,1003.896
2024-03-11T18:22:03.519Z,1003.92
2024-03-11T18:27:02.518Z,1003.913
2024-03-11T18:32:02.815Z,1004.012
2024-03-11T18:37:04.240Z,1004.102
2024-03-11T18:42:02.538Z,1004.17
2024-03-11T18:47:02.724Z,1004.183
2024-03-11T18:52:02.587Z,1004.256
2024-03-11T18:57:04.338Z,1004.402
2024-03-11T19:02:04.516Z,1004.432
2024-03-11T19:07:03.849Z,1004.516
2024-03-11T19:12:02.687Z,1004.576
2024-03-11T19:17:02.603Z,1004.651
2024-03-11T19:22:02.632Z,1004.692
2024-03-11T19:27:03.886Z,1004.783
2024-03-11T19:32:02.551Z,1004.792
2024-03-11T19:37:11.244Z,1004.836
2024-03-11T19:42:08.567Z,1004.883
2024-03-11T19:47:22.105Z,1004.896
2024-03-11T19:52:22.541Z,1005.042
2024-03-11T19:57:16.796Z,1005.081
2024-03-11T20:02:22.494Z,1005.171
2024-03-11T20:07:15.134Z,1005.292
2024-03-11T20:12:15.376Z,1005.356
2024-03-11T20:17:19.494Z,1005.346
2024-03-11T20:22:13.590Z,1005.408
2024-03-11T20:27:06.075Z,1005.435
2024-03-11T20:32:07.752Z,1005.465
2024-03-11T20:37:05.144Z,1005.531
2024-03-11T20:42:03.478Z,1005.594
2024-03-11T20:47:04.780Z,1005.671
2024-03-11T20:52:02.734Z,1005.726
2024-03-11T20:57:03.107Z,1005.802
2024-03-11T21:02:02.673Z,1005.891
2024-03-11T21:07:06.404Z,1005.946
2024-03-11T21:12:02.553Z,1005.903
2024-03-11T21:17:07.269Z,1005.964
2024-03-11T21:22:30.688Z,1006.066
2024-03-11T21:27:14.299Z,1006.147
2024-03-11T21:32:02.589Z,1006.15
2024-03-11T21:37:03.349Z,1006.178
2024-03-11T21:42:02.638Z,1006.212
2024-03-11T21:47:03.151Z,1006.311
2024-03-11T21:52:02.709Z,1006.307
2024-03-11T21:57:04.467Z,1006.262
2024-03-11T22:02:02.881Z,1006.399
2024-03-11T22:07:02.783Z,1006.517
2024-03-11T22:12:02.678Z,1006.574
2024-03-11T22:17:05.231Z,1006.598
2024-03-11T22:22:04.650Z,1006.642
2024-03-11T22:27:05.471Z,1006.66
2024-03-11T22:32:02.721Z,1006.714
2024-03-11T22:37:02.735Z,1006.717
2024-03-11T22:42:10.432Z,1006.792
2024-03-11T22:47:02.700Z,1006.858
2024-03-11T22:52:02.720Z,1006.886
2024-03-11T22:57:12.746Z,1006.944
2024-03-11T23:02:02.674Z,1007.005
2024-03-11T23:07:03.305Z,1007.066
2024-03-11T23:12:05.493Z,1007.096
2024-03-11T23:17:03.341Z,1007.173
2024-03-11T23:22:02.817Z,1007.208
2024-03-11T23:27:04.456Z,1007.225
2024-03-11T23:32:02.703Z,1007.193
2024-03-11T23:37:02.838Z,1007.179
2024-03-11T23:42:02.938Z,1007.221
2024-03-11T23:47:02.743Z,1007.255
2024-03-11T23:52:02.811Z,1007.311
2024-03-11T23:57:02.802Z,1007.32
